createdAt,value
2018-06-05T00:00:29.556Z,17.26
2018-06-05T00:01:29.529Z,17.25
2018-06-05T00:02:29.528Z,17.28
2018-06-05T00:03:29.498Z,17.21
2018-06-05T00:04:29.484Z,17.16
2018-06-05T00:05:29.502Z,17.18
2018-06-05T00:06:29.456Z,17.14
2018-06-05T00:07:29.437Z,17.18
2018-06-05T00:08:29.430Z,17.15
2018-06-05T00:09:29.411Z,17.19
2018-06-05T00:10:29.396Z,17.14
2018-06-05T00:11:29.413Z,17.16
2018-06-05T00:12:29.372Z,17.11
2018-06-05T00:13:29.356Z,17.14
2018-06-05T00:14:29.342Z,17.04
2018-06-05T00:15:29.321Z,16.98
2018-06-05T00:16:29.317Z,17.08
2018-06-05T00:17:29.293Z,17.08
2018-06-05T00:18:29.280Z,16.98
2018-06-05T00:19:29.261Z,17.03
2018-06-05T00:20:29.246Z,16.97
2018-06-05T00:21:29.253Z,16.93
2018-06-05T00:22:29.224Z,16.93
2018-06-05T00:23:29.203Z,16.96
2018-06-05T00:24:29.188Z,16.91
2018-06-05T00:25:29.173Z,16.85
2018-06-05T00:26:29.159Z,16.82
2018-06-05T00:27:29.155Z,16.81
2018-06-05T00:28:29.126Z,16.83
2018-06-05T00:29:29.116Z,16.71
2018-06-05T00:30:29.100Z,16.66
2018-06-05T00:31:29.081Z,16.60
2018-06-05T00:32:29.081Z,16.67
2018-06-05T00:33:29.058Z,16.71
2018-06-05T00:34:29.040Z,16.58
2018-06-05T00:35:29.051Z,16.58
2018-06-05T00:36:29.007Z,16.63
2018-06-05T00:37:29.014Z,16.58
2018-06-05T00:38:28.977Z,16.57
2018-06-05T00:39:28.963Z,16.58
2018-06-05T00:40:28.945Z,16.58
2018-06-05T00:41:28.933Z,16.58
2018-06-05T00:42:28.915Z,16.56
2018-06-05T00:43:28.912Z,16.50
2018-06-05T00:44:28.886Z,16.49
2018-06-05T00:45:28.870Z,16.57
2018-06-05T00:46:28.856Z,16.53
2018-06-05T00:47:28.838Z,16.63
2018-06-05T00:48:28.836Z,16.60
2018-06-05T00:49:28.808Z,16.58
2018-06-05T00:50:28.794Z,16.57
2018-06-05T00:51:28.779Z,16.61
2018-06-05T00:52:28.764Z,16.52
2018-06-05T00:53:28.790Z,16.50
2018-06-05T00:54:28.737Z,16.48
2018-06-05T00:55:28.722Z,16.50
2018-06-05T00:56:28.710Z,16.41
2018-06-05T00:57:28.689Z,16.45
2018-06-05T00:58:28.672Z,16.42
2018-06-05T00:59:28.674Z,16.35
2018-06-05T01:00:28.641Z,16.42
2018-06-05T01:01:28.631Z,16.31
2018-06-05T01:02:28.616Z,16.34
2018-06-05T01:03:28.595Z,16.34
2018-06-05T01:04:28.590Z,16.35
2018-06-05T01:05:28.566Z,16.38
2018-06-05T01:06:28.550Z,16.31
2018-06-05T01:07:28.535Z,16.30
2018-06-05T01:08:28.521Z,16.34
2018-06-05T01:09:28.526Z,16.28
2018-06-05T01:10:28.489Z,16.28
2018-06-05T01:11:28.472Z,16.25
2018-06-05T01:12:28.467Z,16.27
2018-06-05T01:13:28.444Z,16.21
2018-06-05T01:14:28.430Z,16.23
2018-06-05T01:15:28.424Z,16.21
2018-06-05T01:16:28.434Z,16.14
2018-06-05T01:17:28.379Z,16.20
2018-06-05T01:18:28.366Z,16.15
2018-06-05T01:19:28.352Z,16.15
2018-06-05T01:20:28.345Z,16.20
2018-06-05T01:21:28.318Z,16.24
2018-06-05T01:22:28.304Z,16.12
2018-06-05T01:23:28.289Z,16.20
2018-06-05T01:24:28.273Z,16.27
2018-06-05T01:25:28.279Z,16.17
2018-06-05T01:26:28.245Z,16.17
2018-06-05T01:27:28.228Z,16.20
2018-06-05T01:28:28.208Z,16.17
2018-06-05T01:29:28.200Z,16.12
2018-06-05T01:30:28.181Z,16.17
2018-06-05T01:31:28.181Z,16.09
2018-06-05T01:32:28.150Z,16.08
2018-06-05T01:33:28.132Z,16.07
2018-06-05T01:34:28.119Z,16.00
2018-06-05T01:35:28.110Z,16.11
2018-06-05T01:36:28.099Z,16.04
2018-06-05T01:37:28.070Z,16.02
2018-06-05T01:38:28.058Z,16.08
2018-06-05T01:39:28.040Z,16.07
2018-06-05T01:40:28.027Z,16.11
2018-06-05T01:41:28.031Z,16.08
2018-06-05T01:42:27.997Z,16.04
2018-06-05T01:43:27.980Z,16.01
2018-06-05T01:44:27.966Z,15.94
2018-06-05T01:45:27.948Z,15.96
2018-06-05T01:46:27.934Z,15.96
2018-06-05T01:47:27.929Z,15.84
2018-06-05T01:48:27.918Z,15.82
2018-06-05T01:49:27.886Z,15.71
2018-06-05T01:50:27.870Z,15.78
2018-06-05T01:51:27.853Z,15.78
2018-06-05T01:52:27.839Z,15.80
2018-06-05T01:53:27.824Z,15.76
2018-06-05T01:54:27.818Z,15.72
2018-06-05T01:55:27.798Z,15.83
2018-06-05T01:56:27.778Z,15.78
2018-06-05T01:57:27.761Z,15.75
2018-06-05T01:58:27.758Z,15.86
2018-06-05T01:59:27.742Z,15.86
2018-06-05T02:00:27.722Z,15.86
2018-06-05T02:01:27.699Z,15.86
2018-06-05T02:02:27.692Z,15.84
2018-06-05T02:03:27.667Z,15.83
2018-06-05T02:04:27.668Z,15.89
2018-06-05T02:05:27.634Z,15.84
2018-06-05T02:06:27.617Z,15.86
2018-06-05T02:07:27.604Z,15.96
2018-06-05T02:08:27.595Z,15.92
2018-06-05T02:09:27.569Z,15.83
2018-06-05T02:10:27.569Z,16.00
2018-06-05T02:11:27.543Z,15.87
2018-06-05T02:12:27.525Z,15.96
2018-06-05T02:13:27.508Z,15.93
2018-06-05T02:14:27.499Z,15.96
2018-06-05T02:15:27.756Z,15.90
2018-06-05T02:16:27.470Z,15.92
2018-06-05T02:17:27.448Z,16.01
2018-06-05T02:18:27.440Z,16.05
2018-06-05T02:19:27.415Z,16.05
2018-06-05T02:20:27.406Z,16.00
2018-06-05T02:21:27.398Z,16.01
2018-06-05T02:22:27.366Z,16.00
2018-06-05T02:23:27.358Z,15.96
2018-06-05T02:24:27.335Z,15.94
2018-06-05T02:25:27.326Z,15.87
2018-06-05T02:26:27.317Z,16.05
2018-06-05T02:27:27.288Z,15.92
2018-06-05T02:28:27.276Z,15.97
2018-06-05T02:29:27.258Z,16.02
2018-06-05T02:30:27.242Z,15.96
2018-06-05T02:31:27.249Z,15.93
2018-06-05T02:32:27.212Z,15.87
2018-06-05T02:33:27.196Z,15.83
2018-06-05T02:34:27.181Z,15.84
2018-06-05T02:35:27.163Z,15.86
2018-06-05T02:36:27.156Z,15.84
2018-06-05T02:37:27.141Z,15.83
2018-06-05T02:38:27.119Z,15.84
2018-06-05T02:39:27.099Z,15.89
2018-06-05T02:40:27.085Z,15.83
2018-06-05T02:41:27.069Z,15.80
2018-06-05T02:42:27.077Z,15.78
2018-06-05T02:43:27.039Z,15.75
2018-06-05T02:44:27.024Z,15.84
2018-06-05T02:45:27.004Z,15.87
2018-06-05T02:46:26.991Z,15.89
2018-06-05T02:47:26.974Z,15.93
2018-06-05T02:48:26.973Z,15.82
2018-06-05T02:49:26.947Z,15.84
2018-06-05T02:50:26.926Z,15.78
2018-06-05T02:51:26.911Z,15.82
2018-06-05T02:52:26.895Z,15.78
2018-06-05T02:53:26.899Z,15.76
2018-06-05T02:54:26.863Z,15.76
2018-06-05T02:55:26.848Z,15.74
2018-06-05T02:56:26.832Z,15.72
2018-06-05T02:57:26.816Z,15.75
2018-06-05T02:58:26.820Z,15.71
2018-06-05T02:59:26.788Z,15.71
2018-06-05T03:00:26.776Z,15.71
2018-06-05T03:01:26.751Z,15.71
2018-06-05T03:02:26.749Z,15.68
2018-06-05T03:03:26.720Z,15.74
2018-06-05T03:04:26.713Z,15.71
2018-06-05T03:05:26.685Z,15.76
2018-06-05T03:06:26.684Z,15.71
2018-06-05T03:07:26.655Z,15.75
2018-06-05T03:08:26.640Z,15.75
2018-06-05T03:09:26.920Z,15.72
2018-06-05T03:10:26.611Z,15.72
2018-06-05T03:11:26.592Z,15.68
2018-06-05T03:12:26.578Z,15.57
2018-06-05T03:13:26.560Z,15.60
2018-06-05T03:14:26.545Z,15.51
2018-06-05T03:15:26.538Z,15.49
2018-06-05T03:16:26.512Z,15.49
2018-06-05T03:17:26.499Z,15.53
2018-06-05T03:18:26.482Z,15.44
2018-06-05T03:19:26.463Z,15.38
2018-06-05T03:20:26.463Z,15.32
2018-06-05T03:21:26.432Z,15.34
2018-06-05T03:22:26.415Z,15.36
2018-06-05T03:23:26.398Z,15.36
2018-06-05T03:24:26.384Z,15.34
2018-06-05T03:25:26.368Z,15.38
2018-06-05T03:26:26.359Z,15.28
2018-06-05T03:27:26.337Z,15.29
2018-06-05T03:28:26.322Z,15.27
2018-06-05T03:29:26.304Z,15.19
2018-06-05T03:30:26.287Z,15.17
2018-06-05T03:31:26.288Z,15.25
2018-06-05T03:32:26.256Z,15.13
2018-06-05T03:33:26.240Z,15.14
2018-06-05T03:34:26.224Z,15.21
2018-06-05T03:35:26.208Z,15.14
2018-06-05T03:36:26.195Z,15.20
2018-06-05T03:37:26.210Z,15.20
2018-06-05T03:38:26.158Z,15.11
2018-06-05T03:39:26.147Z,15.16
2018-06-05T03:40:26.127Z,15.07
2018-06-05T03:41:26.110Z,15.03
2018-06-05T03:42:26.095Z,14.98
2018-06-05T03:43:26.089Z,15.01
2018-06-05T03:44:26.063Z,14.96
2018-06-05T03:45:26.053Z,14.96
2018-06-05T03:46:26.033Z,14.98
2018-06-05T03:47:26.014Z,14.99
2018-06-05T03:48:26.008Z,14.98
2018-06-05T03:49:25.981Z,15.01
2018-06-05T03:50:25.967Z,14.95
2018-06-05T03:51:25.948Z,14.95
2018-06-05T03:52:25.932Z,14.99
2018-06-05T03:53:25.936Z,14.99
2018-06-05T03:54:25.902Z,15.02
2018-06-05T03:55:25.888Z,15.11
2018-06-05T03:56:25.896Z,14.92
2018-06-05T03:57:25.855Z,14.98
2018-06-05T03:58:25.838Z,15.06
2018-06-05T03:59:25.836Z,15.07
2018-06-05T04:00:25.804Z,15.10
2018-06-05T04:01:25.792Z,15.17
2018-06-05T04:02:25.776Z,15.11
2018-06-05T04:03:25.756Z,15.14
2018-06-05T04:04:25.785Z,15.06
2018-06-05T04:05:25.737Z,15.21
2018-06-05T04:06:25.708Z,15.20
2018-06-05T04:07:25.694Z,15.19
2018-06-05T04:08:25.676Z,15.21
2018-06-05T04:09:25.658Z,15.20
2018-06-05T04:10:25.654Z,15.19
2018-06-05T04:11:25.628Z,15.27
2018-06-05T04:12:25.611Z,15.28
2018-06-05T04:13:25.594Z,15.25
2018-06-05T04:14:25.581Z,15.31
2018-06-05T04:15:25.572Z,15.36
2018-06-05T04:16:25.547Z,15.32
2018-06-05T04:17:25.533Z,15.36
2018-06-05T04:18:25.517Z,15.38
2018-06-05T04:19:25.499Z,15.44
2018-06-05T04:20:25.517Z,15.47
2018-06-05T04:21:25.468Z,15.46
2018-06-05T04:22:25.454Z,15.49
2018-06-05T04:23:25.437Z,15.46
2018-06-05T04:24:25.438Z,15.60
2018-06-05T04:25:25.402Z,15.65
2018-06-05T04:26:25.404Z,15.57
2018-06-05T04:27:25.372Z,15.65
2018-06-05T04:28:25.354Z,15.69
2018-06-05T04:29:25.337Z,15.76
2018-06-05T04:30:25.323Z,15.71
2018-06-05T04:31:25.305Z,15.78
2018-06-05T04:32:25.304Z,15.82
2018-06-05T04:33:25.272Z,15.76
2018-06-05T04:34:25.260Z,15.86
2018-06-05T04:35:25.242Z,15.94
2018-06-05T04:36:25.227Z,15.87
2018-06-05T04:37:25.221Z,15.93
2018-06-05T04:38:25.195Z,16.02
2018-06-05T04:39:25.180Z,16.04
2018-06-05T04:40:25.165Z,15.94
2018-06-05T04:41:25.148Z,16.05
2018-06-05T04:42:25.147Z,16.00
2018-06-05T04:43:25.116Z,16.07
2018-06-05T04:44:25.102Z,16.05
2018-06-05T04:45:25.087Z,16.14
2018-06-05T04:46:25.072Z,16.20
2018-06-05T04:47:25.054Z,16.24
2018-06-05T04:48:25.055Z,16.24
2018-06-05T04:49:25.026Z,16.43
2018-06-05T04:50:25.006Z,16.42
2018-06-05T04:51:24.991Z,16.43
2018-06-05T04:52:24.973Z,16.45
2018-06-05T04:53:24.960Z,16.56
2018-06-05T04:54:24.959Z,16.53
2018-06-05T04:55:24.929Z,16.58
2018-06-05T04:56:24.910Z,16.57
2018-06-05T04:57:24.897Z,16.60
2018-06-05T04:58:24.881Z,16.67
2018-06-05T04:59:24.880Z,16.67
2018-06-05T05:00:24.852Z,16.71
2018-06-05T05:01:24.834Z,16.71
2018-06-05T05:02:24.822Z,16.73
2018-06-05T05:03:24.810Z,16.82
2018-06-05T05:04:24.798Z,16.83
2018-06-05T05:05:24.781Z,16.91
2018-06-05T05:06:24.759Z,16.98
2018-06-05T05:07:24.745Z,17.00
2018-06-05T05:08:24.727Z,16.98
2018-06-05T05:09:24.711Z,17.11
2018-06-05T05:10:24.961Z,16.96
2018-06-05T05:11:24.680Z,16.98
2018-06-05T05:12:24.664Z,17.15
2018-06-05T05:13:24.652Z,17.25
2018-06-05T05:14:24.635Z,17.26
2018-06-05T05:15:24.619Z,17.36
2018-06-05T05:16:24.652Z,17.51
2018-06-05T05:17:24.593Z,17.55
2018-06-05T05:18:24.576Z,17.63
2018-06-05T05:19:24.559Z,17.59
2018-06-05T05:20:24.544Z,17.64
2018-06-05T05:21:24.528Z,17.68
2018-06-05T05:22:24.529Z,17.74
2018-06-05T05:23:24.501Z,17.78
2018-06-05T05:24:24.484Z,17.75
2018-06-05T05:25:24.469Z,17.78
2018-06-05T05:26:24.460Z,17.79
2018-06-05T05:27:24.486Z,17.62
2018-06-05T05:28:24.424Z,17.55
2018-06-05T05:29:24.410Z,17.44
2018-06-05T05:30:24.395Z,17.52
2018-06-05T05:31:24.380Z,17.48
2018-06-05T05:32:24.392Z,17.37
2018-06-05T05:33:24.355Z,17.55
2018-06-05T05:34:24.336Z,17.59
2018-06-05T05:35:24.324Z,17.64
2018-06-05T05:36:24.307Z,17.68
2018-06-05T05:37:24.547Z,17.68
2018-06-05T05:38:24.277Z,17.74
2018-06-05T05:39:24.261Z,17.56
2018-06-05T05:40:24.248Z,17.63
2018-06-05T05:41:24.235Z,17.59
2018-06-05T05:42:24.219Z,17.66
2018-06-05T05:43:24.220Z,17.74
2018-06-05T05:44:24.196Z,17.75
2018-06-05T05:45:24.175Z,17.74
2018-06-05T05:46:24.163Z,17.77
2018-06-05T05:47:24.146Z,17.71
2018-06-05T05:48:24.131Z,17.72
2018-06-05T05:49:24.128Z,17.71
2018-06-05T05:50:24.101Z,17.77
2018-06-05T05:51:24.104Z,17.77
2018-06-05T05:52:24.073Z,17.82
2018-06-05T05:53:24.059Z,17.78
2018-06-05T05:54:24.056Z,17.81
2018-06-05T05:55:24.028Z,17.86
2018-06-05T05:56:24.019Z,17.95
2018-06-05T05:57:24.000Z,17.90
2018-06-05T05:58:23.989Z,17.99
2018-06-05T05:59:23.984Z,18.07
2018-06-05T06:00:23.953Z,18.12
2018-06-05T06:01:23.943Z,17.99
2018-06-05T06:02:23.929Z,17.93
2018-06-05T06:03:23.914Z,17.90
2018-06-05T06:04:23.905Z,17.95
2018-06-05T06:05:23.900Z,17.95
2018-06-05T06:06:23.870Z,17.97
2018-06-05T06:07:23.856Z,17.93
2018-06-05T06:08:23.840Z,18.10
2018-06-05T06:09:23.828Z,18.14
2018-06-05T06:10:23.815Z,18.23
2018-06-05T06:11:23.806Z,18.29
2018-06-05T06:12:23.784Z,18.29
2018-06-05T06:13:23.771Z,18.21
2018-06-05T06:14:23.754Z,18.15
2018-06-05T06:15:23.739Z,18.18
2018-06-05T06:16:23.735Z,18.23
2018-06-05T06:17:23.713Z,18.39
2018-06-05T06:18:23.698Z,18.17
2018-06-05T06:19:23.682Z,18.08
2018-06-05T06:20:23.671Z,18.15
2018-06-05T06:21:23.665Z,18.25
2018-06-05T06:22:23.642Z,18.33
2018-06-05T06:23:23.627Z,18.26
2018-06-05T06:24:23.613Z,18.26
2018-06-05T06:25:23.601Z,18.21
2018-06-05T06:26:23.606Z,18.30
2018-06-05T06:27:23.571Z,18.35
2018-06-05T06:28:23.557Z,18.20
2018-06-05T06:29:23.544Z,18.30
2018-06-05T06:30:23.527Z,18.26
2018-06-05T06:31:23.514Z,18.36
2018-06-05T06:32:23.514Z,18.45
2018-06-05T06:33:23.484Z,18.45
2018-06-05T06:34:23.470Z,18.37
2018-06-05T06:35:23.459Z,18.07
2018-06-05T06:36:23.441Z,17.99
2018-06-05T06:37:23.429Z,17.99
2018-06-05T06:38:23.424Z,17.99
2018-06-05T06:39:23.404Z,18.02
2018-06-05T06:40:23.389Z,18.02
2018-06-05T06:41:23.375Z,18.08
2018-06-05T06:42:23.357Z,18.17
2018-06-05T06:43:23.355Z,18.37
2018-06-05T06:44:23.331Z,18.36
2018-06-05T06:45:23.316Z,18.37
2018-06-05T06:46:23.308Z,18.35
2018-06-05T06:47:23.285Z,18.21
2018-06-05T06:48:23.288Z,18.11
2018-06-05T06:49:23.258Z,18.18
2018-06-05T06:50:23.247Z,18.29
2018-06-05T06:51:23.230Z,18.33
2018-06-05T06:52:23.215Z,18.32
2018-06-05T06:53:23.206Z,18.45
2018-06-05T06:54:23.227Z,18.30
2018-06-05T06:55:23.174Z,18.35
2018-06-05T06:56:23.161Z,18.29
2018-06-05T06:57:23.146Z,18.41
2018-06-05T06:58:23.131Z,18.30
2018-06-05T06:59:23.133Z,18.36
2018-06-05T07:00:23.105Z,18.44
2018-06-05T07:01:23.091Z,18.44
2018-06-05T07:02:23.075Z,18.47
2018-06-05T07:03:23.060Z,18.42
2018-06-05T07:04:23.049Z,18.48
2018-06-05T07:05:23.053Z,18.42
2018-06-05T07:06:23.023Z,18.51
2018-06-05T07:07:23.004Z,18.44
2018-06-05T07:08:22.991Z,18.36
2018-06-05T07:09:22.975Z,18.35
2018-06-05T07:10:22.974Z,18.47
2018-06-05T07:11:22.947Z,18.47
2018-06-05T07:12:23.021Z,18.41
2018-06-05T07:13:22.921Z,18.48
2018-06-05T07:14:22.905Z,18.50
2018-06-05T07:15:22.906Z,18.54
2018-06-05T07:16:22.879Z,18.29
2018-06-05T07:17:22.878Z,18.47
2018-06-05T07:18:22.909Z,18.42
2018-06-05T07:19:22.836Z,18.30
2018-06-05T07:20:22.818Z,18.37
2018-06-05T07:21:22.869Z,18.37
2018-06-05T07:22:22.795Z,18.44
2018-06-05T07:23:22.781Z,18.36
2018-06-05T07:24:22.765Z,18.25
2018-06-05T07:25:24.354Z,18.32
2018-06-05T07:26:23.013Z,18.14
2018-06-05T07:27:22.723Z,18.15
2018-06-05T07:28:22.708Z,18.14
2018-06-05T07:29:22.694Z,18.11
2018-06-05T07:30:22.728Z,18.27
2018-06-05T07:31:22.667Z,18.26
2018-06-05T07:32:22.665Z,18.21
2018-06-05T07:33:22.638Z,18.18
2018-06-05T07:34:22.626Z,18.27
2018-06-05T07:35:22.611Z,18.14
2018-06-05T07:36:22.597Z,18.25
2018-06-05T07:37:22.600Z,18.30
2018-06-05T07:38:22.571Z,18.50
2018-06-05T07:39:22.553Z,18.35
2018-06-05T07:40:22.540Z,18.42
2018-06-05T07:41:22.558Z,18.57
2018-06-05T07:42:22.513Z,18.65
2018-06-05T07:43:22.504Z,18.87
2018-06-05T07:44:22.525Z,18.76
2018-06-05T07:45:22.472Z,18.67
2018-06-05T07:46:22.463Z,18.80
2018-06-05T07:47:22.445Z,18.81
2018-06-05T07:48:22.460Z,18.63
2018-06-05T07:49:22.413Z,18.87
2018-06-05T07:50:22.402Z,18.99
2018-06-05T07:51:22.384Z,19.13
2018-06-05T07:52:22.373Z,19.18
2018-06-05T07:53:22.362Z,19.23
2018-06-05T07:54:22.360Z,19.33
2018-06-05T07:55:22.398Z,19.44
2018-06-05T07:56:22.316Z,19.29
2018-06-05T07:57:22.303Z,19.36
2018-06-05T07:58:22.290Z,19.46
2018-06-05T07:59:22.293Z,19.56
2018-06-05T08:00:22.264Z,19.58
2018-06-05T08:01:22.247Z,19.56
2018-06-05T08:02:22.236Z,19.50
2018-06-05T08:03:22.219Z,19.56
2018-06-05T08:04:22.216Z,19.62
2018-06-05T08:05:22.204Z,19.61
2018-06-05T08:06:22.183Z,19.73
2018-06-05T08:07:22.167Z,19.88
2018-06-05T08:08:22.157Z,19.71
2018-06-05T08:09:22.143Z,19.68
2018-06-05T08:10:22.138Z,19.54
2018-06-05T08:11:22.121Z,18.98
2018-06-05T08:12:22.101Z,19.14
2018-06-05T08:13:22.087Z,18.99
2018-06-05T08:14:22.074Z,18.99
2018-06-05T08:15:22.092Z,19.26
2018-06-05T08:16:22.049Z,19.50
2018-06-05T08:17:22.042Z,19.71
2018-06-05T08:18:22.048Z,19.76
2018-06-05T08:19:22.007Z,19.66
2018-06-05T08:20:21.996Z,19.96
2018-06-05T08:21:21.993Z,19.98
2018-06-05T08:22:21.971Z,19.99
2018-06-05T08:23:21.955Z,20.02
2018-06-05T08:24:21.973Z,20.02
2018-06-05T08:25:21.934Z,20.02
2018-06-05T08:26:21.934Z,20.14
2018-06-05T08:27:21.908Z,20.33
2018-06-05T08:28:21.895Z,20.55
2018-06-05T08:29:21.880Z,20.48
2018-06-05T08:30:21.866Z,20.38
2018-06-05T08:31:21.855Z,20.72
2018-06-05T08:32:21.852Z,20.35
2018-06-05T08:33:21.827Z,20.48
2018-06-05T08:34:21.815Z,20.55
2018-06-05T08:35:21.804Z,20.39
2018-06-05T08:36:21.790Z,20.54
2018-06-05T08:37:22.053Z,20.38
2018-06-05T08:38:21.766Z,20.41
2018-06-05T08:39:21.752Z,20.42
2018-06-05T08:40:21.738Z,20.29
2018-06-05T08:41:21.730Z,20.52
2018-06-05T08:42:21.715Z,20.73
2018-06-05T08:43:21.711Z,20.74
2018-06-05T08:44:21.699Z,20.72
2018-06-05T08:45:21.679Z,20.35
2018-06-05T08:46:21.667Z,20.72
2018-06-05T08:47:21.651Z,20.89
2018-06-05T08:48:21.650Z,20.74
2018-06-05T08:49:21.630Z,20.98
2018-06-05T08:50:21.617Z,21.06
2018-06-05T08:51:21.605Z,20.98
2018-06-05T08:52:21.591Z,21.25
2018-06-05T08:53:21.594Z,21.28
2018-06-05T08:54:21.572Z,20.59
2018-06-05T08:55:21.554Z,20.67
2018-06-05T08:56:21.543Z,20.74
2018-06-05T08:57:21.531Z,20.74
2018-06-05T08:58:21.520Z,20.95
2018-06-05T08:59:21.516Z,21.09
2018-06-05T09:00:21.493Z,20.89
2018-06-05T09:01:21.485Z,21.01
2018-06-05T09:02:21.472Z,20.95
2018-06-05T09:03:21.456Z,20.97
2018-06-05T09:04:21.715Z,21.29
2018-06-05T09:05:21.480Z,21.44
2018-06-05T09:06:21.422Z,21.24
2018-06-05T09:07:21.409Z,21.40
2018-06-05T09:08:21.398Z,21.64
2018-06-05T09:09:21.387Z,21.40
2018-06-05T09:10:21.386Z,21.49
2018-06-05T09:11:21.361Z,21.10
2018-06-05T09:12:21.350Z,21.12
2018-06-05T09:13:21.339Z,21.09
2018-06-05T09:14:21.329Z,21.07
2018-06-05T09:15:21.326Z,21.31
2018-06-05T09:16:21.312Z,21.62
2018-06-05T09:17:21.294Z,21.59
2018-06-05T09:18:21.280Z,21.82
2018-06-05T09:19:21.266Z,21.54
2018-06-05T09:20:21.274Z,21.68
2018-06-05T09:21:21.244Z,21.53
2018-06-05T09:22:21.232Z,21.43
2018-06-05T09:23:21.223Z,21.83
2018-06-05T09:24:21.212Z,20.99
2018-06-05T09:25:21.200Z,21.01
2018-06-05T09:26:21.198Z,21.28
2018-06-05T09:27:21.174Z,21.24
2018-06-05T09:28:21.165Z,21.27
2018-06-05T09:29:21.152Z,21.16
2018-06-05T09:30:21.142Z,21.27
2018-06-05T09:31:21.143Z,21.28
2018-06-05T09:32:21.119Z,21.10
2018-06-05T09:33:21.107Z,21.07
2018-06-05T09:34:21.108Z,21.21
2018-06-05T09:35:21.085Z,20.98
2018-06-05T09:36:21.073Z,21.17
2018-06-05T09:37:21.074Z,20.88
2018-06-05T09:38:21.048Z,21.01
2018-06-05T09:39:21.034Z,20.79
2018-06-05T09:40:21.028Z,20.59
2018-06-05T09:41:21.014Z,20.57
2018-06-05T09:42:21.020Z,21.04
2018-06-05T09:43:20.997Z,21.24
2018-06-05T09:44:20.978Z,21.22
2018-06-05T09:45:20.967Z,21.58
2018-06-05T09:46:20.958Z,21.58
2018-06-05T09:47:20.942Z,21.99
2018-06-05T09:48:20.940Z,22.02
2018-06-05T09:49:20.923Z,22.43
2018-06-05T09:50:20.908Z,22.57
2018-06-05T09:51:20.897Z,22.79
2018-06-05T09:52:20.901Z,22.80
2018-06-05T09:53:20.884Z,23.04
2018-06-05T09:54:20.862Z,23.10
2018-06-05T09:55:20.850Z,23.02
2018-06-05T09:56:20.843Z,22.24
2018-06-05T09:57:20.827Z,22.33
2018-06-05T09:58:20.945Z,22.30
2018-06-05T09:59:20.805Z,22.10
2018-06-05T10:00:20.793Z,21.88
2018-06-05T10:01:20.783Z,21.68
2018-06-05T10:02:20.771Z,21.61
2018-06-05T10:03:20.758Z,21.69
2018-06-05T10:04:20.757Z,21.74
2018-06-05T10:05:20.741Z,21.83
2018-06-05T10:06:20.730Z,21.67
2018-06-05T10:07:20.714Z,21.35
2018-06-05T10:08:20.703Z,21.31
2018-06-05T10:09:20.706Z,21.56
2018-06-05T10:10:20.681Z,21.67
2018-06-05T10:11:20.667Z,21.96
2018-06-05T10:12:20.657Z,22.12
2018-06-05T10:13:20.642Z,22.25
2018-06-05T10:14:20.634Z,22.33
2018-06-05T10:15:20.635Z,22.15
2018-06-05T10:16:20.609Z,22.17
2018-06-05T10:17:20.597Z,22.37
2018-06-05T10:18:20.586Z,22.47
2018-06-05T10:19:20.574Z,22.45
2018-06-05T10:20:20.622Z,22.39
2018-06-05T10:21:20.552Z,22.33
2018-06-05T10:22:20.542Z,21.84
2018-06-05T10:23:20.527Z,21.98
2018-06-05T10:24:20.516Z,21.96
2018-06-05T10:25:20.506Z,22.21
2018-06-05T10:26:20.500Z,22.45
2018-06-05T10:27:20.493Z,22.57
2018-06-05T10:28:20.468Z,22.52
2018-06-05T10:29:20.456Z,22.68
2018-06-05T10:30:20.447Z,22.35
2018-06-05T10:31:20.444Z,22.09
2018-06-05T10:32:20.424Z,22.30
2018-06-05T10:33:20.412Z,22.05
2018-06-05T10:34:20.401Z,22.28
2018-06-05T10:35:20.389Z,22.39
2018-06-05T10:36:20.392Z,22.77
2018-06-05T10:37:20.364Z,22.94
2018-06-05T10:38:20.353Z,22.61
2018-06-05T10:39:20.347Z,22.57
2018-06-05T10:40:20.328Z,22.68
2018-06-05T10:41:20.321Z,22.75
2018-06-05T10:42:20.321Z,22.95
2018-06-05T10:43:20.297Z,23.01
2018-06-05T10:44:20.283Z,22.73
2018-06-05T10:45:20.272Z,22.45
2018-06-05T10:46:20.260Z,22.42
2018-06-05T10:47:20.262Z,22.73
2018-06-05T10:48:20.238Z,23.02
2018-06-05T10:49:20.227Z,23.15
2018-06-05T10:50:20.213Z,23.01
2018-06-05T10:51:20.205Z,22.75
2018-06-05T10:52:20.191Z,23.10
2018-06-05T10:53:20.191Z,22.88
2018-06-05T10:54:20.173Z,23.47
2018-06-05T10:55:20.156Z,23.90
2018-06-05T10:56:20.145Z,24.35
2018-06-05T10:57:20.136Z,24.99
2018-06-05T10:58:20.142Z,24.96
2018-06-05T10:59:20.110Z,25.35
2018-06-05T11:00:20.102Z,25.32
2018-06-05T11:01:20.089Z,25.36
2018-06-05T11:02:20.078Z,25.32
2018-06-05T11:03:20.068Z,25.35
2018-06-05T11:04:20.066Z,25.32
2018-06-05T11:05:20.047Z,25.55
2018-06-05T11:06:20.034Z,26.05
2018-06-05T11:07:20.024Z,26.33
2018-06-05T11:08:20.009Z,26.45
2018-06-05T11:09:20.009Z,26.50
2018-06-05T11:10:19.988Z,26.48
2018-06-05T11:11:19.982Z,26.05
2018-06-05T11:12:19.968Z,25.54
2018-06-05T11:13:19.954Z,24.96
2018-06-05T11:14:19.966Z,24.55
2018-06-05T11:15:19.934Z,25.00
2018-06-05T11:16:19.921Z,25.69
2018-06-05T11:17:19.912Z,26.32
2018-06-05T11:18:19.910Z,26.06
2018-06-05T11:19:19.890Z,25.52
2018-06-05T11:20:19.891Z,26.07
2018-06-05T11:21:19.869Z,26.12
2018-06-05T11:22:19.861Z,26.39
2018-06-05T11:23:19.846Z,26.15
2018-06-05T11:24:19.840Z,26.28
2018-06-05T11:25:19.833Z,25.88
2018-06-05T11:26:19.815Z,26.07
2018-06-05T11:27:19.804Z,26.30
2018-06-05T11:28:19.795Z,26.94
2018-06-05T11:29:19.781Z,27.13
2018-06-05T11:30:19.803Z,27.10
2018-06-05T11:31:19.761Z,26.63
2018-06-05T11:32:19.750Z,25.72
2018-06-05T11:33:19.739Z,25.70
2018-06-05T11:34:19.729Z,25.82
2018-06-05T11:35:19.717Z,26.50
2018-06-05T11:36:19.735Z,26.88
2018-06-05T11:37:19.698Z,27.27
2018-06-05T11:38:19.689Z,27.31
2018-06-05T11:39:19.677Z,26.69
2018-06-05T11:40:19.669Z,27.41
2018-06-05T11:41:19.659Z,27.59
2018-06-05T11:42:19.669Z,27.41
2018-06-05T11:43:19.634Z,27.60
2018-06-05T11:44:19.625Z,27.40
2018-06-05T11:45:19.618Z,26.84
2018-06-05T11:46:19.605Z,26.10
2018-06-05T11:47:19.606Z,26.55
2018-06-05T11:48:19.584Z,26.76
2018-06-05T11:49:19.573Z,26.89
2018-06-05T11:50:19.561Z,27.29
2018-06-05T11:51:19.554Z,27.36
2018-06-05T11:52:19.560Z,27.69
2018-06-05T11:53:19.533Z,26.92
2018-06-05T11:54:19.547Z,26.58
2018-06-05T11:55:19.513Z,25.88
2018-06-05T11:56:19.504Z,26.06
2018-06-05T11:57:19.491Z,26.63
2018-06-05T11:58:19.497Z,27.32
2018-06-05T11:59:19.469Z,27.74
2018-06-05T12:00:19.460Z,27.99
2018-06-05T12:01:19.451Z,28.12
2018-06-05T12:02:19.446Z,26.82
2018-06-05T12:03:19.429Z,26.54
2018-06-05T12:04:19.430Z,26.43
2018-06-05T12:05:19.410Z,26.67
2018-06-05T12:06:19.399Z,27.07
2018-06-05T12:07:19.388Z,27.03
2018-06-05T12:08:19.381Z,27.28
2018-06-05T12:09:19.378Z,27.84
2018-06-05T12:10:19.358Z,26.97
2018-06-05T12:11:19.350Z,27.27
2018-06-05T12:12:19.338Z,26.95
2018-06-05T12:13:19.328Z,27.18
2018-06-05T12:14:19.329Z,26.97
2018-06-05T12:15:19.309Z,27.70
2018-06-05T12:16:19.298Z,28.00
2018-06-05T12:17:19.291Z,27.99
2018-06-05T12:18:19.280Z,28.19
2018-06-05T12:19:19.282Z,28.03
2018-06-05T12:20:19.258Z,28.66
2018-06-05T12:21:19.249Z,28.68
2018-06-05T12:22:19.237Z,27.72
2018-06-05T12:23:19.230Z,27.22
2018-06-05T12:24:19.220Z,27.19
2018-06-05T12:25:19.222Z,26.94
2018-06-05T12:26:19.200Z,26.63
2018-06-05T12:27:19.191Z,26.52
2018-06-05T12:28:19.181Z,26.97
2018-06-05T12:29:19.170Z,27.41
2018-06-05T12:30:19.161Z,27.77
2018-06-05T12:31:19.158Z,27.82
2018-06-05T12:32:19.143Z,26.97
2018-06-05T12:33:19.130Z,26.28
2018-06-05T12:34:19.121Z,26.65
2018-06-05T12:35:19.109Z,27.10
2018-06-05T12:36:19.110Z,27.82
2018-06-05T12:37:19.090Z,28.55
2018-06-05T12:38:19.087Z,28.55
2018-06-05T12:39:19.070Z,28.61
2018-06-05T12:40:19.063Z,29.09
2018-06-05T12:41:19.070Z,27.36
2018-06-05T12:42:19.042Z,27.70
2018-06-05T12:43:19.033Z,27.66
2018-06-05T12:44:19.027Z,28.11
2018-06-05T12:45:19.015Z,28.02
2018-06-05T12:46:19.002Z,28.21
2018-06-05T12:47:19.007Z,26.80
2018-06-05T12:48:18.986Z,26.54
2018-06-05T12:49:18.975Z,27.47
2018-06-05T12:50:18.964Z,27.00
2018-06-05T12:51:18.955Z,28.00
2018-06-05T12:52:18.946Z,28.27